createdAt,value
2022-12-08T00:01:33.398Z,4.59
2022-12-08T00:04:04.033Z,4.68
2022-12-08T00:07:01.174Z,4.82
2022-12-08T00:09:38.187Z,4.84
2022-12-08T00:12:16.635Z,4.80
2022-12-08T00:14:46.350Z,4.65
2022-12-08T00:17:16.384Z,4.61
2022-12-08T00:19:43.970Z,4.64
2022-12-08T00:22:12.870Z,4.71
2022-12-08T00:24:41.822Z,4.71
2022-12-08T00:27:11.114Z,4.75
2022-12-08T00:29:38.889Z,4.64
2022-12-08T00:32:08.629Z,4.64
2022-12-08T00:34:35.921Z,4.68
2022-12-08T00:37:03.678Z,4.74
2022-12-08T00:39:32.065Z,4.62
2022-12-08T00:42:14.600Z,4.58
2022-12-08T00:44:44.805Z,4.65
2022-12-08T00:47:13.923Z,4.67
2022-12-08T00:49:41.631Z,4.62
2022-12-08T00:52:09.450Z,4.59
2022-12-08T00:54:36.825Z,4.67
2022-12-08T00:57:04.447Z,4.72
2022-12-08T00:59:31.870Z,4.74
2022-12-08T01:02:00.292Z,4.77
2022-12-08T01:04:27.827Z,4.83
2022-12-08T01:06:55.498Z,4.80
2022-12-08T01:09:23.924Z,4.91
2022-12-08T01:11:54.244Z,4.90
2022-12-08T01:14:21.970Z,4.87
2022-12-08T01:16:49.881Z,4.86
2022-12-08T01:19:18.013Z,4.97
2022-12-08T01:21:46.413Z,4.81
2022-12-08T01:24:20.490Z,4.84
2022-12-08T01:26:50.501Z,4.85
2022-12-08T01:29:18.090Z,4.84
2022-12-08T01:31:47.071Z,4.84
2022-12-08T01:34:14.589Z,4.72
2022-12-08T01:36:44.382Z,4.85
2022-12-08T01:39:16.969Z,4.78
2022-12-08T01:41:46.423Z,4.81
2022-12-08T01:44:13.741Z,4.82
2022-12-08T01:46:46.117Z,4.75
2022-12-08T01:49:23.192Z,4.74
2022-12-08T01:52:10.145Z,4.78
2022-12-08T01:55:06.149Z,4.70
2022-12-08T01:57:45.369Z,4.59
2022-12-08T02:00:16.778Z,4.52
2022-12-08T02:02:54.487Z,4.45
2022-12-08T02:05:25.279Z,4.48
2022-12-08T02:07:55.872Z,4.51
2022-12-08T02:10:24.608Z,4.53
2022-12-08T02:12:54.928Z,4.62
2022-12-08T02:15:50.562Z,4.67
2022-12-08T02:18:33.026Z,4.69
2022-12-08T02:21:17.916Z,4.61
2022-12-08T02:24:07.610Z,4.57
2022-12-08T02:27:03.933Z,4.49
2022-12-08T02:29:43.493Z,4.51
2022-12-08T02:32:28.690Z,4.57
2022-12-08T02:35:14.729Z,4.65
2022-12-08T02:37:50.596Z,4.69
2022-12-08T02:40:31.977Z,4.67
2022-12-08T02:43:28.386Z,4.72
2022-12-08T02:46:02.323Z,4.66
2022-12-08T02:48:30.642Z,4.61
2022-12-08T02:51:00.492Z,4.70
2022-12-08T02:53:32.421Z,4.76
2022-12-08T02:56:14.078Z,4.63
2022-12-08T02:59:12.793Z,4.69
2022-12-08T03:02:13.645Z,4.66
2022-12-08T03:05:02.475Z,4.72
2022-12-08T03:07:30.131Z,4.78
2022-12-08T03:10:10.073Z,4.76
2022-12-08T03:12:46.776Z,4.73
2022-12-08T03:15:19.125Z,4.78
2022-12-08T03:17:51.473Z,4.81
2022-12-08T03:20:25.379Z,4.81
2022-12-08T03:22:58.887Z,4.86
2022-12-08T03:25:30.523Z,4.88
2022-12-08T03:28:06.752Z,4.75
2022-12-08T03:30:38.897Z,4.83
2022-12-08T03:33:30.117Z,4.92
2022-12-08T03:35:59.770Z,4.97
2022-12-08T03:38:36.794Z,4.97
2022-12-08T03:41:19.720Z,5.03
2022-12-08T03:43:59.565Z,5.01
2022-12-08T03:48:57.640Z,4.97
2022-12-08T03:51:27.398Z,4.97
2022-12-08T03:53:55.227Z,5.00
2022-12-08T03:56:29.955Z,4.99
2022-12-08T03:58:57.915Z,5.01
2022-12-08T04:01:25.652Z,4.95
2022-12-08T04:03:53.942Z,5.04
2022-12-08T04:06:21.872Z,5.11
2022-12-08T04:08:50.408Z,4.93
2022-12-08T04:11:18.326Z,4.94
2022-12-08T04:13:46.194Z,4.93
2022-12-08T04:16:17.243Z,4.95
2022-12-08T04:18:45.218Z,4.88
2022-12-08T04:21:12.843Z,4.86
2022-12-08T04:23:40.916Z,4.81
2022-12-08T04:26:08.513Z,4.82
2022-12-08T04:28:36.736Z,4.75
2022-12-08T04:31:05.764Z,4.59
2022-12-08T04:33:35.530Z,4.62
2022-12-08T04:36:04.973Z,4.69
2022-12-08T04:38:34.186Z,4.65
2022-12-08T04:41:02.202Z,4.75
2022-12-08T04:43:30.362Z,4.77
2022-12-08T04:45:57.998Z,4.64
2022-12-08T04:48:25.917Z,4.75
2022-12-08T04:50:53.317Z,4.77
2022-12-08T04:53:21.532Z,4.73
2022-12-08T04:55:49.763Z,4.71
2022-12-08T04:58:20.611Z,4.79
2022-12-08T05:00:48.403Z,4.82
2022-12-08T05:03:17.287Z,4.82
2022-12-08T05:05:45.149Z,4.86
2022-12-08T05:08:12.772Z,4.81
2022-12-08T05:10:40.586Z,4.74
2022-12-08T05:13:08.766Z,4.69
2022-12-08T05:15:36.339Z,4.79
2022-12-08T05:18:06.862Z,4.71
2022-12-08T05:20:34.718Z,4.62
2022-12-08T05:23:02.863Z,4.41
2022-12-08T05:25:30.120Z,4.57
2022-12-08T05:28:17.736Z,4.52
2022-12-08T05:30:44.894Z,4.48
2022-12-08T05:33:13.510Z,4.41
2022-12-08T05:35:41.070Z,4.39
2022-12-08T05:38:11.379Z,4.33
2022-12-08T05:40:43.586Z,4.31
2022-12-08T05:43:11.514Z,4.34
2022-12-08T05:45:39.124Z,4.25
2022-12-08T05:48:06.806Z,4.31
2022-12-08T05:50:34.106Z,4.23
2022-12-08T05:53:05.008Z,4.37
2022-12-08T05:55:32.252Z,4.42
2022-12-08T05:58:03.156Z,4.38
2022-12-08T06:00:35.176Z,4.41
2022-12-08T06:03:02.967Z,4.38
2022-12-08T06:05:32.145Z,4.45
2022-12-08T06:07:59.761Z,4.44
2022-12-08T06:10:28.227Z,4.23
2022-12-08T06:12:55.814Z,4.22
2022-12-08T06:15:23.747Z,4.19
2022-12-08T06:17:51.400Z,4.21
2022-12-08T06:20:18.956Z,4.28
2022-12-08T06:22:46.625Z,4.26
2022-12-08T06:25:13.822Z,4.20
2022-12-08T06:27:41.334Z,4.20
2022-12-08T06:30:08.950Z,4.15
2022-12-08T06:32:37.434Z,4.19
2022-12-08T06:35:04.998Z,4.31
2022-12-08T06:37:32.785Z,4.37
2022-12-08T06:40:00.114Z,4.46
2022-12-08T06:42:46.772Z,4.44
2022-12-08T06:45:16.451Z,4.45
2022-12-08T06:47:45.223Z,4.37
2022-12-08T06:50:14.335Z,4.45
2022-12-08T06:52:53.262Z,4.55
2022-12-08T06:58:15.022Z,4.57
2022-12-08T07:00:42.514Z,4.51
2022-12-08T07:03:15.390Z,4.15
2022-12-08T07:05:44.904Z,4.47
2022-12-08T07:08:12.725Z,4.48
2022-12-08T07:10:40.018Z,4.53
2022-12-08T07:13:09.672Z,4.55
2022-12-08T07:15:37.032Z,4.56
2022-12-08T07:18:06.856Z,4.65
2022-12-08T07:20:34.398Z,4.66
2022-12-08T07:23:02.205Z,4.89
2022-12-08T07:25:29.660Z,4.98
2022-12-08T07:27:57.278Z,5.02
2022-12-08T07:30:25.250Z,5.03
2022-12-08T07:32:54.233Z,5.14
2022-12-08T07:35:22.959Z,5.25
2022-12-08T07:37:50.615Z,5.43
2022-12-08T07:40:18.213Z,5.47
2022-12-08T07:43:04.789Z,5.41
2022-12-08T07:45:32.108Z,5.44
2022-12-08T07:47:59.747Z,5.73
2022-12-08T07:50:27.165Z,5.66
2022-12-08T07:52:57.572Z,5.83
2022-12-08T07:55:26.558Z,6.04
2022-12-08T07:57:54.030Z,6.15
2022-12-08T08:00:23.150Z,7.06
2022-12-08T08:02:51.155Z,6.98
2022-12-08T08:05:20.784Z,6.75
2022-12-08T08:07:53.368Z,7.03
2022-12-08T08:10:22.902Z,6.80
2022-12-08T08:12:51.631Z,6.82
2022-12-08T08:15:25.299Z,6.73
2022-12-08T08:17:52.885Z,6.91
2022-12-08T08:20:21.570Z,7.06
2022-12-08T08:23:17.256Z,7.75
2022-12-08T08:25:44.449Z,8.45
2022-12-08T08:28:11.941Z,9.21
2022-12-08T08:30:39.348Z,9.42
2022-12-08T08:33:06.962Z,9.78
2022-12-08T08:35:34.991Z,10.58
2022-12-08T08:38:02.524Z,10.86
2022-12-08T08:40:30.040Z,10.79
2022-12-08T08:43:01.466Z,10.57
2022-12-08T08:45:33.049Z,10.56
2022-12-08T08:48:30.202Z,10.66
2022-12-08T08:50:59.101Z,10.54
2022-12-08T08:53:26.713Z,10.11
2022-12-08T08:55:53.903Z,9.73
2022-12-08T08:58:21.504Z,9.38
2022-12-08T09:00:48.725Z,8.82
2022-12-08T09:03:19.677Z,8.28
2022-12-08T09:05:47.024Z,8.14
2022-12-08T09:08:14.676Z,7.80
2022-12-08T09:10:42.850Z,7.82
2022-12-08T09:13:10.362Z,7.71
2022-12-08T09:15:38.127Z,7.52
2022-12-08T09:18:08.415Z,7.41
2022-12-08T09:20:36.303Z,7.59
2022-12-08T09:23:04.428Z,7.87
2022-12-08T09:25:31.732Z,7.98
2022-12-08T09:27:59.342Z,7.95
2022-12-08T09:30:26.521Z,7.53
2022-12-08T09:32:54.215Z,7.45
2022-12-08T09:35:21.544Z,7.80
2022-12-08T09:37:49.086Z,7.93
2022-12-08T09:40:20.342Z,7.78
2022-12-08T09:42:55.877Z,7.58
2022-12-08T09:45:26.813Z,8.30
2022-12-08T09:47:59.183Z,9.20
2022-12-08T09:50:50.138Z,10.16
2022-12-08T09:53:35.853Z,9.95
2022-12-08T09:56:14.464Z,10.48
2022-12-08T09:59:01.919Z,10.76
2022-12-08T10:01:32.430Z,10.39
2022-12-08T10:04:01.005Z,10.45
2022-12-08T10:06:39.984Z,9.63
2022-12-08T10:09:27.700Z,8.80
2022-12-08T10:12:00.443Z,8.74
2022-12-08T10:15:04.891Z,7.80
2022-12-08T10:17:44.693Z,7.65
2022-12-08T10:20:17.050Z,7.23
2022-12-08T10:22:50.956Z,6.91
2022-12-08T10:25:37.251Z,6.88
2022-12-08T10:28:04.725Z,6.98
2022-12-08T10:30:33.567Z,7.04
2022-12-08T10:33:00.829Z,7.16
2022-12-08T10:35:47.425Z,7.21
2022-12-08T10:38:35.108Z,7.23
2022-12-08T10:41:13.691Z,7.14
2022-12-08T10:43:59.044Z,7.10
2022-12-08T10:46:28.843Z,6.89
2022-12-08T10:48:57.280Z,6.94
2022-12-08T10:51:27.971Z,6.67
2022-12-08T10:53:55.679Z,6.66
2022-12-08T10:56:27.853Z,6.65
2022-12-08T10:59:15.196Z,6.76
2022-12-08T11:01:47.545Z,6.68
2022-12-08T11:04:39.992Z,6.60
2022-12-08T11:07:11.648Z,6.78
2022-12-08T11:09:48.823Z,6.72
2022-12-08T11:12:20.987Z,6.46
2022-12-08T11:15:03.138Z,6.44
2022-12-08T11:17:41.319Z,6.67
2022-12-08T11:20:11.838Z,6.78
2022-12-08T11:22:41.239Z,6.70
2022-12-08T11:25:08.441Z,6.81
2022-12-08T11:27:38.505Z,6.80
2022-12-08T11:30:18.679Z,6.67
2022-12-08T11:32:50.605Z,6.69
2022-12-08T11:35:23.813Z,6.68
2022-12-08T11:37:51.678Z,6.78
2022-12-08T11:40:38.627Z,6.83
2022-12-08T11:43:16.846Z,6.88
2022-12-08T11:45:44.343Z,6.99
2022-12-08T11:48:19.663Z,7.09
2022-12-08T11:50:54.776Z,7.11
2022-12-08T11:53:27.991Z,7.14
2022-12-08T11:56:05.297Z,7.05
2022-12-08T11:58:57.678Z,7.06
2022-12-08T12:01:26.727Z,7.28
2022-12-08T12:04:17.291Z,7.33
2022-12-08T12:06:54.776Z,7.42
2022-12-08T12:09:30.674Z,7.38
2022-12-08T12:12:44.153Z,7.40
2022-12-08T12:15:36.215Z,7.41
2022-12-08T12:18:16.504Z,7.40
2022-12-08T12:20:58.140Z,7.33
2022-12-08T12:23:31.485Z,7.39
2022-12-08T12:26:02.620Z,7.47
2022-12-08T12:28:49.899Z,7.47
2022-12-08T12:31:22.011Z,7.50
2022-12-08T12:33:51.296Z,7.59
2022-12-08T12:36:19.064Z,7.62
2022-12-08T12:39:04.285Z,7.63
2022-12-08T12:42:00.873Z,7.81
2022-12-08T12:44:28.328Z,7.73
2022-12-08T12:46:59.137Z,7.72
2022-12-08T12:49:46.150Z,7.72
2022-12-08T12:52:16.474Z,7.82
2022-12-08T12:55:03.824Z,7.78
2022-12-08T12:57:39.980Z,7.78
2022-12-08T13:00:19.012Z,7.81
2022-12-08T13:02:49.302Z,7.86
2022-12-08T13:05:21.404Z,7.83
2022-12-08T13:08:10.071Z,7.71
2022-12-08T13:11:00.895Z,7.52
2022-12-08T13:13:29.267Z,7.44
2022-12-08T13:15:59.099Z,7.44
2022-12-08T13:18:40.704Z,7.51
2022-12-08T13:21:10.263Z,7.53
2022-12-08T13:24:14.495Z,7.56
2022-12-08T13:26:45.954Z,7.56
2022-12-08T13:29:20.371Z,7.52
2022-12-08T13:31:51.226Z,7.61
2022-12-08T13:34:21.228Z,7.64
2022-12-08T13:36:55.540Z,7.70
2022-12-08T13:39:58.080Z,7.79
2022-12-08T13:42:42.527Z,7.83
2022-12-08T13:45:39.793Z,7.84
2022-12-08T13:48:41.672Z,7.72
2022-12-08T13:53:34.168Z,7.69
2022-12-08T13:57:11.650Z,7.80
2022-12-08T13:59:45.487Z,7.85
2022-12-08T14:02:38.632Z,7.84
2022-12-08T14:05:17.993Z,7.78
2022-12-08T14:07:49.341Z,7.83
2022-12-08T14:10:28.515Z,7.94
2022-12-08T14:13:00.684Z,7.91
2022-12-08T14:15:32.681Z,7.87
2022-12-08T14:18:04.723Z,7.82
2022-12-08T14:20:46.801Z,7.91
2022-12-08T14:23:21.949Z,7.96
2022-12-08T14:25:49.254Z,7.91
2022-12-08T14:28:16.949Z,7.96
2022-12-08T14:30:44.646Z,7.94
2022-12-08T14:33:19.670Z,7.95
2022-12-08T14:35:56.309Z,8.05
2022-12-08T14:38:26.364Z,8.07
2022-12-08T14:41:06.293Z,8.02
2022-12-08T14:43:34.119Z,7.97
2022-12-08T14:46:05.251Z,7.94
2022-12-08T14:48:38.596Z,8.04
2022-12-08T14:51:21.440Z,8.07
2022-12-08T14:54:01.113Z,8.04
2022-12-08T14:56:50.425Z,8.04
2022-12-08T14:59:27.724Z,8.09
2022-12-08T15:02:27.225Z,8.04
2022-12-08T15:04:57.680Z,7.94
2022-12-08T15:07:48.815Z,7.85
2022-12-08T15:10:16.346Z,7.82
2022-12-08T15:12:58.545Z,7.84
2022-12-08T15:15:27.398Z,7.86
2022-12-08T15:18:13.046Z,7.83
2022-12-08T15:21:01.490Z,7.81
2022-12-08T15:23:38.529Z,7.70
2022-12-08T15:26:06.247Z,7.79
2022-12-08T15:28:33.458Z,7.66
2022-12-08T15:31:01.112Z,7.65
2022-12-08T15:33:28.652Z,7.52
2022-12-08T15:35:56.284Z,7.51
2022-12-08T15:38:31.118Z,7.57
2022-12-08T15:40:58.912Z,7.46
2022-12-08T15:43:26.358Z,7.56
2022-12-08T15:45:59.435Z,7.48
2022-12-08T15:48:30.024Z,7.60
2022-12-08T15:50:58.011Z,7.65
2022-12-08T15:53:25.300Z,7.66
2022-12-08T15:56:25.733Z,7.63
2022-12-08T15:58:57.043Z,7.62
2022-12-08T16:01:26.158Z,7.52
2022-12-08T16:07:19.713Z,7.64
2022-12-08T16:09:40.899Z,7.59
2022-12-08T16:13:48.343Z,7.63
2022-12-08T16:15:51.662Z,7.72
2022-12-08T16:18:29.642Z,7.64
2022-12-08T16:21:31.514Z,7.68
2022-12-08T16:23:45.773Z,7.67
2022-12-08T16:29:07.298Z,7.56
2022-12-08T16:31:34.807Z,7.61
2022-12-08T16:34:02.490Z,7.57
2022-12-08T16:36:29.738Z,7.60
2022-12-08T16:38:57.227Z,7.64
2022-12-08T16:41:42.972Z,7.60
2022-12-08T16:44:11.395Z,7.61
2022-12-08T16:46:39.279Z,7.66
2022-12-08T16:49:09.208Z,7.67
2022-12-08T16:51:36.470Z,7.61
2022-12-08T16:54:04.032Z,7.59
2022-12-08T16:56:33.413Z,7.57
2022-12-08T16:59:02.075Z,7.57
2022-12-08T17:01:29.870Z,7.63
2022-12-08T17:06:45.015Z,7.58
2022-12-08T17:09:12.780Z,7.71
2022-12-08T17:11:43.455Z,7.70
2022-12-08T17:14:13.142Z,7.61
2022-12-08T17:16:41.363Z,7.64
2022-12-08T17:19:09.644Z,7.67
2022-12-08T17:21:36.880Z,7.67
2022-12-08T17:24:05.089Z,7.67
2022-12-08T17:26:32.453Z,7.65
2022-12-08T17:29:02.322Z,7.62
2022-12-08T17:31:32.052Z,7.61
2022-12-08T17:34:05.297Z,7.57
2022-12-08T17:36:32.570Z,7.57
2022-12-08T17:39:01.234Z,7.57
2022-12-08T17:41:29.623Z,7.48
2022-12-08T17:43:57.830Z,7.35
2022-12-08T17:46:25.424Z,7.34
2022-12-08T17:48:53.709Z,7.29
2022-12-08T17:51:21.269Z,7.23
2022-12-08T17:53:48.981Z,7.20
2022-12-08T17:56:20.298Z,7.14
2022-12-08T17:58:54.350Z,7.22
2022-12-08T18:01:23.726Z,7.21
2022-12-08T18:03:51.759Z,7.20
2022-12-08T18:06:19.044Z,7.22
2022-12-08T18:08:46.985Z,7.18
2022-12-08T18:11:17.568Z,7.18
2022-12-08T18:13:45.758Z,7.14
2022-12-08T18:16:13.789Z,7.10
2022-12-08T18:18:41.738Z,7.14
2022-12-08T18:21:09.863Z,7.08
2022-12-08T18:23:57.896Z,7.01
2022-12-08T18:26:26.785Z,6.97
2022-12-08T18:28:54.545Z,6.96
2022-12-08T18:31:24.419Z,6.84
2022-12-08T18:33:52.742Z,6.96
2022-12-08T18:36:24.319Z,6.95
2022-12-08T18:38:53.149Z,6.98
2022-12-08T18:41:26.289Z,7.17
2022-12-08T18:43:55.746Z,7.16
2022-12-08T18:46:24.270Z,7.18
2022-12-08T18:48:52.422Z,7.24
2022-12-08T18:51:22.542Z,7.29
2022-12-08T18:53:50.801Z,7.32
2022-12-08T18:56:28.741Z,7.32
2022-12-08T18:59:02.864Z,7.28
2022-12-08T19:01:32.622Z,7.35
2022-12-08T19:06:51.878Z,7.43
2022-12-08T19:09:20.357Z,7.30
2022-12-08T19:11:47.731Z,7.14
2022-12-08T19:14:22.616Z,7.15
2022-12-08T19:16:53.503Z,7.18
2022-12-08T19:19:22.094Z,7.14
2022-12-08T19:21:49.287Z,7.14
2022-12-08T19:24:19.258Z,7.01
2022-12-08T19:26:47.459Z,6.80
2022-12-08T19:29:15.108Z,6.83
2022-12-08T19:31:42.981Z,6.79
2022-12-08T19:34:15.075Z,6.64
2022-12-08T19:36:43.120Z,6.60
2022-12-08T19:39:34.297Z,6.62
2022-12-08T19:42:22.324Z,6.63
2022-12-08T19:44:52.693Z,6.60
2022-12-08T19:47:26.274Z,6.49
2022-12-08T19:50:15.225Z,6.46
2022-12-08T19:52:43.129Z,6.47
2022-12-08T19:55:11.844Z,6.53
2022-12-08T19:57:39.505Z,6.56
2022-12-08T20:00:10.351Z,6.62
2022-12-08T20:02:39.314Z,6.56
2022-12-08T20:05:08.378Z,6.50
2022-12-08T20:07:36.509Z,6.59
2022-12-08T20:10:09.466Z,6.63
2022-12-08T20:12:37.781Z,6.58
2022-12-08T20:15:06.485Z,6.54
2022-12-08T20:17:38.679Z,6.40
2022-12-08T20:20:12.372Z,6.37
2022-12-08T20:22:40.464Z,6.34
2022-12-08T20:25:13.261Z,6.31
2022-12-08T20:27:41.572Z,6.38
2022-12-08T20:30:14.961Z,6.39
2022-12-08T20:32:45.648Z,6.33
2022-12-08T20:35:13.360Z,6.25
2022-12-08T20:37:41.373Z,6.37
2022-12-08T20:40:11.501Z,6.34
2022-12-08T20:42:58.099Z,6.33
2022-12-08T20:45:28.131Z,6.44
2022-12-08T20:47:56.082Z,6.44
2022-12-08T20:50:24.506Z,6.48
2022-12-08T20:52:55.377Z,6.47
2022-12-08T20:55:23.941Z,6.45
2022-12-08T20:57:52.027Z,6.44
2022-12-08T21:00:24.368Z,6.40
2022-12-08T21:02:56.563Z,6.33
2022-12-08T21:05:25.486Z,6.29
2022-12-08T21:07:53.597Z,6.19
2022-12-08T21:10:21.906Z,6.16
2022-12-08T21:12:49.742Z,6.17
2022-12-08T21:15:18.295Z,6.24
2022-12-08T21:17:46.524Z,6.23
2022-12-08T21:20:15.402Z,6.33
2022-12-08T21:22:44.102Z,6.37
2022-12-08T21:25:12.681Z,6.39
2022-12-08T21:27:42.036Z,6.39
2022-12-08T21:30:11.241Z,6.33
2022-12-08T21:32:39.699Z,6.37
2022-12-08T21:35:08.062Z,6.58
2022-12-08T21:37:35.780Z,6.51
2022-12-08T21:40:08.433Z,6.43
2022-12-08T21:42:45.571Z,6.49
2022-12-08T21:45:17.273Z,6.55
2022-12-08T21:47:46.332Z,6.70
2022-12-08T21:50:16.454Z,6.80
2022-12-08T21:52:45.819Z,6.73
2022-12-08T21:55:15.047Z,6.69
2022-12-08T21:57:42.890Z,6.69
2022-12-08T22:00:15.359Z,6.87
2022-12-08T22:02:43.808Z,6.94
2022-12-08T22:05:13.055Z,6.93
2022-12-08T22:07:41.360Z,7.04
2022-12-08T22:10:10.509Z,7.03
2022-12-08T22:12:38.614Z,7.09
2022-12-08T22:15:08.044Z,7.24
2022-12-08T22:17:44.539Z,7.24
2022-12-08T22:20:15.489Z,7.26
2022-12-08T22:22:44.332Z,7.29
2022-12-08T22:25:12.573Z,7.37
2022-12-08T22:27:40.665Z,7.30
2022-12-08T22:30:11.046Z,7.31
2022-12-08T22:32:39.314Z,7.29
2022-12-08T22:35:08.773Z,7.29
2022-12-08T22:37:36.288Z,7.17
2022-12-08T22:40:12.270Z,7.16
2022-12-08T22:42:41.226Z,7.31
2022-12-08T22:45:10.926Z,7.34
2022-12-08T22:47:38.355Z,7.22
2022-12-08T22:50:07.091Z,7.28
2022-12-08T22:52:35.225Z,7.24
2022-12-08T22:55:04.307Z,7.15
2022-12-08T22:57:31.891Z,7.14
2022-12-08T22:59:59.537Z,7.17
2022-12-08T23:02:27.878Z,7.29
2022-12-08T23:04:57.114Z,7.38
2022-12-08T23:07:25.165Z,7.45
2022-12-08T23:09:52.822Z,7.45
2022-12-08T23:12:24.652Z,7.55
2022-12-08T23:14:53.179Z,7.54
2022-12-08T23:17:22.126Z,7.69
2022-12-08T23:19:54.277Z,7.69
2022-12-08T23:22:23.007Z,7.74
2022-12-08T23:24:50.729Z,7.68
2022-12-08T23:27:18.408Z,7.60
2022-12-08T23:29:52.440Z,7.64
2022-12-08T23:32:20.275Z,7.54
2022-12-08T23:34:47.968Z,7.62
2022-12-08T23:37:17.086Z,7.66
2022-12-08T23:39:45.125Z,7.72
2022-12-08T23:42:12.855Z,7.70
2022-12-08T23:44:40.987Z,7.98
2022-12-08T23:47:10.899Z,8.02
2022-12-08T23:49:38.495Z,8.07
2022-12-08T23:52:05.963Z,8.16
2022-12-08T23:54:33.934Z,8.12
2022-12-08T23:57:01.466Z,8.08
2022-12-08T23:59:31.033Z,8.12
